Time;durP1;ratioP1;P1;durP2;ratioP2;P2;SDS_P1;SDS_P2;PMS_P1;PMS_P2;Temp;Humidity;BMP_temperature;BMP_pressure;BME280_temperature;BME280_humidity;BME280_pressure;Samples;Min_cycle;Max_cycle;Signal;HPM_P1;HPM_P2
2023/08/19 00:00:15;;;;;;;;;27.25;23.50;;;;;26.89;59.35;100537.09;4977005;28;45312;-45
2023/08/19 00:02:44;;;;;;;;;25.25;24.25;;;;;26.88;59.35;100528.28;4976720;28;45174;-48
2023/08/19 00:05:10;;;;;;;;;25.25;25.00;;;;;26.89;59.64;100526.44;4976730;28;45352;-48
2023/08/19 00:07:35;;;;;;;;;27.50;24.25;;;;;26.87;59.51;100525.72;4976671;28;45358;-46
2023/08/19 00:10:05;;;;;;;;;24.50;23.00;;;;;26.90;59.49;100530.78;4976610;28;45338;-49
2023/08/19 00:12:31;;;;;;;;;25.25;24.75;;;;;26.89;59.74;100527.31;4976769;28;45852;-42
2023/08/19 00:14:57;;;;;;;;;24.50;24.00;;;;;26.90;60.27;100538.78;4980262;28;45669;-42
2023/08/19 00:17:23;;;;;;;;;29.25;25.50;;;;;26.89;59.62;100531.75;4979884;28;45298;-44
2023/08/19 00:19:49;;;;;;;;;32.50;30.25;;;;;26.89;59.50;100539.75;4979803;28;45913;-41
2023/08/19 00:22:14;;;;;;;;;29.00;25.50;;;;;26.90;59.72;100544.09;4962882;28;45360;-44
2023/08/19 00:24:40;;;;;;;;;22.25;20.00;;;;;26.90;59.99;100544.91;4980066;28;45661;-49
2023/08/19 00:27:05;;;;;;;;;26.50;22.00;;;;;26.88;59.96;100544.22;4979818;28;46139;-47
2023/08/19 00:29:30;;;;;;;;;25.50;24.50;;;;;26.91;59.78;100556.41;4979724;28;45452;-46
2023/08/19 00:31:56;;;;;;;;;27.50;23.25;;;;;26.84;60.49;100548.94;4979474;28;53369;-50
2023/08/19 00:34:21;;;;;;;;;31.75;28.25;;;;;26.90;59.92;100557.38;4979806;28;45218;-48
2023/08/19 00:36:48;;;;;;;;;31.75;29.25;;;;;26.92;59.80;100555.44;4979598;28;46329;-42
2023/08/19 00:39:13;;;;;;;;;30.25;27.50;;;;;26.90;59.75;100560.88;4979946;28;45286;-48
2023/08/19 00:41:39;;;;;;;;;31.25;28.25;;;;;26.90;59.75;100563.53;4979699;28;45187;-48
2023/08/19 00:44:05;;;;;;;;;34.50;26.75;;;;;26.90;59.81;100566.19;4979776;28;45387;-49
2023/08/19 00:46:31;;;;;;;;;32.00;28.00;;;;;26.91;60.14;100556.41;4979460;28;46604;-50
2023/08/19 00:48:58;;;;;;;;;30.25;26.50;;;;;26.90;59.78;100560.03;4962062;28;45322;-48
2023/08/19 00:51:24;;;;;;;;;30.00;28.00;;;;;26.90;59.67;100552.91;4962032;28;45428;-42
2023/08/19 00:53:49;;;;;;;;;27.00;25.50;;;;;26.91;59.68;100561.72;4979735;28;45333;-44
2023/08/19 00:56:15;;;;;;;;;29.50;28.50;;;;;26.91;59.73;100559.06;4979506;28;45442;-51
2023/08/19 00:58:41;;;;;;;;;26.00;24.50;;;;;26.90;60.17;100554.72;4979330;28;45404;-51
2023/08/19 01:01:07;;;;;;;;;29.00;28.25;;;;;26.90;60.01;100554.72;4979412;28;45411;-50
2023/08/19 01:03:33;;;;;;;;;29.25;26.00;;;;;26.92;59.80;100558.09;4979497;28;45323;-49
2023/08/19 01:06:01;;;;;;;;;29.75;27.75;;;;;26.92;59.78;100555.44;4961647;28;48035;-47
2023/08/19 01:08:40;;;;;;;;;29.75;26.75;;;;;26.89;59.49;100553.91;4979265;28;45283;-52
2023/08/19 01:11:37;;;;;;;;;38.50;31.75;;;;;26.91;59.67;100561.72;4979357;28;45337;-48
2023/08/19 01:14:15;;;;;;;;;30.75;29.75;;;;;26.91;59.50;100567.03;4979449;28;45460;-47
2023/08/19 01:16:46;;;;;;;;;29.50;27.50;;;;;26.92;59.79;100568.72;4978992;28;46189;-47
2023/08/19 01:19:29;;;;;;;;;28.00;25.75;;;;;26.90;59.93;100570.69;4979158;28;45453;-51
2023/08/19 01:22:00;;;;;;;;;30.50;29.75;;;;;26.90;59.36;100570.69;4979207;28;45294;-48
2023/08/19 01:24:32;;;;;;;;;31.50;30.00;;;;;26.90;59.68;100578.66;4978979;28;45258;-47
2023/08/19 01:26:58;;;;;;;;;31.50;29.00;;;;;26.90;59.81;100581.31;4978962;28;46377;-51
2023/08/19 01:29:23;;;;;;;;;30.67;28.33;;;;;26.90;59.65;100581.31;4978183;28;65907;-46
2023/08/19 01:31:49;;;;;;;;;31.50;26.75;;;;;26.89;59.64;100579.63;4978556;28;57243;-50
2023/08/19 01:34:14;;;;;;;;;26.75;24.25;;;;;26.90;59.37;100586.63;4979031;28;45657;-49
2023/08/19 01:36:44;;;;;;;;;29.50;26.25;;;;;26.89;59.11;100593.78;4978691;28;46368;-52
2023/08/19 01:39:10;;;;;;;;;30.50;28.50;;;;;26.89;59.08;100595.59;4978698;28;45797;-47
2023/08/19 01:41:37;;;;;;;;;24.50;20.25;;;;;26.89;59.50;100601.75;4978879;28;45314;-50
2023/08/19 01:44:03;;;;;;;;;28.25;25.00;;;;;26.89;59.51;100600.91;4978926;28;45379;-48
2023/08/19 01:46:28;;;;;;;;;31.00;27.75;;;;;26.89;59.54;100600.91;4978621;28;46772;-45
2023/08/19 01:48:54;;;;;;;;;25.75;23.25;;;;;26.90;59.83;100611.41;4978692;28;45294;-46
2023/08/19 01:51:20;;;;;;;;;27.50;24.00;;;;;26.90;59.75;100606.06;4979089;28;45190;-49
2023/08/19 01:53:45;;;;;;;;;26.50;23.50;;;;;26.90;59.52;100610.56;4978903;28;45559;-49
2023/08/19 01:56:13;;;;;;;;;26.75;25.75;;;;;26.90;59.59;100611.41;4977946;28;62249;-48
2023/08/19 01:58:39;;;;;;;;;26.75;25.00;;;;;26.89;59.43;100609.75;4978535;28;45338;-45
2023/08/19 02:01:06;;;;;;;;;25.75;25.00;;;;;26.89;59.55;100615.06;4978518;28;45374;-46
2023/08/19 02:03:31;;;;;;;;;26.50;26.00;;;;;26.89;59.75;100606.22;4978518;28;45452;-47
2023/08/19 02:05:57;;;;;;;;;22.75;22.75;;;;;26.89;59.31;100616.84;4977708;28;62817;-40
2023/08/19 02:08:22;;;;;;;;;27.75;22.75;;;;;26.88;59.41;100623.16;4978265;28;45352;-46
2023/08/19 02:10:47;;;;;;;;;26.50;24.00;;;;;26.88;59.19;100615.16;4978808;28;45520;-47
2023/08/19 02:13:13;;;;;;;;;21.00;19.75;;;;;26.89;58.57;100624.84;4978606;28;45373;-48
2023/08/19 02:15:38;;;;;;;;;24.00;17.50;;;;;26.88;59.16;100623.16;4978025;28;45387;-42
2023/08/19 02:18:04;;;;;;;;;23.50;21.00;;;;;26.86;58.81;100617.97;4978148;28;45237;-50
2023/08/19 02:20:29;;;;;;;;;28.25;22.50;;;;;26.88;58.98;100626.66;4978224;28;45330;-52
2023/08/19 02:22:55;;;;;;;;;23.50;22.75;;;;;26.87;58.54;100629.44;4978198;28;45382;-48
2023/08/19 02:25:20;;;;;;;;;22.25;20.00;;;;;26.87;58.79;100632.09;4978222;28;45275;-46
2023/08/19 02:27:46;;;;;;;;;21.50;19.00;;;;;26.85;58.64;100633.06;4978002;28;45222;-48
2023/08/19 02:30:12;;;;;;;;;24.75;19.25;;;;;26.87;58.69;100632.97;4977702;28;45384;-51
2023/08/19 02:32:40;;;;;;;;;22.00;20.00;;;;;26.87;58.36;100634.75;4978062;28;45169;-45
2023/08/19 02:35:06;;;;;;;;;19.75;18.75;;;;;26.85;58.23;100635.72;4977218;28;46408;-49
2023/08/19 02:37:31;;;;;;;;;20.00;18.50;;;;;26.82;58.14;100644.00;4977231;28;45254;-45
2023/08/19 02:39:57;;;;;;;;;21.25;20.00;;;;;26.83;58.13;100644.81;4977950;28;45350;-39
2023/08/19 02:42:22;;;;;;;;;21.75;16.00;;;;;26.83;57.82;100648.34;4977765;28;53833;-39
2023/08/19 02:44:47;;;;;;;;;24.00;22.00;;;;;26.83;58.00;100639.50;4976872;28;68635;-41
2023/08/19 02:47:12;;;;;;;;;21.00;19.50;;;;;26.83;57.66;100645.69;4977530;28;50570;-43
2023/08/19 02:49:38;;;;;;;;;24.25;21.00;;;;;26.83;58.00;100647.47;4977354;28;52711;-46
2023/08/19 02:52:05;;;;;;;;;23.25;18.50;;;;;26.80;57.89;100648.59;4977780;28;45567;-52
2023/08/19 02:54:30;;;;;;;;;20.25;17.50;;;;;26.82;57.67;100662.59;4977438;28;46504;-48
2023/08/19 02:56:55;;;;;;;;;20.75;19.25;;;;;26.83;57.55;100663.44;4977116;28;56314;-46
2023/08/19 02:59:21;;;;;;;;;21.25;18.00;;;;;26.82;57.55;100664.41;4977393;28;57826;-50
2023/08/19 03:01:46;;;;;;;;;17.50;16.50;;;;;26.82;57.43;100673.25;4977019;28;54765;-46
2023/08/19 03:04:11;;;;;;;;;20.25;19.00;;;;;26.80;57.14;100667.19;4976794;28;62590;-46
2023/08/19 03:06:36;;;;;;;;;18.50;16.00;;;;;26.80;56.92;100666.34;4977275;28;45448;-47
2023/08/19 03:09:02;;;;;;;;;19.75;19.00;;;;;26.81;57.08;100668.88;4977556;28;45358;-48
2023/08/19 03:11:27;;;;;;;;;21.00;19.00;;;;;26.81;57.31;100658.25;4977262;28;45263;-48
2023/08/19 03:13:53;;;;;;;;;18.25;18.00;;;;;26.81;57.08;100660.06;4977558;28;46322;-47
2023/08/19 03:16:18;;;;;;;;;17.75;17.00;;;;;26.82;57.46;100664.41;4976867;28;53223;-45
2023/08/19 03:18:43;;;;;;;;;17.25;15.50;;;;;26.81;57.23;100674.22;4977329;28;45353;-48
2023/08/19 03:21:09;;;;;;;;;18.50;16.25;;;;;26.81;57.58;100676.88;4977110;28;45375;-50
2023/08/19 03:23:34;;;;;;;;;23.00;17.25;;;;;26.80;57.02;100677.84;4976923;28;46208;-51
2023/08/19 03:25:59;;;;;;;;;18.50;16.75;;;;;26.79;56.88;100681.47;4977126;28;45310;-46
2023/08/19 03:28:25;;;;;;;;;20.25;19.25;;;;;26.81;57.08;100689.31;4977526;28;45338;-49
2023/08/19 03:30:50;;;;;;;;;19.00;19.00;;;;;26.78;57.23;100684.25;4977276;28;45653;-46
2023/08/19 03:33:16;;;;;;;;;18.75;16.00;;;;;26.80;57.05;100688.47;4976737;28;46234;-43
2023/08/19 03:35:41;;;;;;;;;16.75;15.25;;;;;26.79;56.77;100689.44;4976936;28;45326;-44
2023/08/19 03:38:07;;;;;;;;;22.75;17.75;;;;;26.80;56.76;100693.78;4977244;28;45389;-46
2023/08/19 03:40:32;;;;;;;;;19.25;16.75;;;;;26.79;56.94;100699.25;4977413;28;45400;-49
2023/08/19 03:42:57;;;;;;;;;19.00;18.75;;;;;26.78;56.65;100690.41;4976795;28;45359;-43
2023/08/19 03:45:23;;;;;;;;;17.00;14.75;;;;;26.78;56.77;100698.38;4977100;28;45400;-51
2023/08/19 03:47:48;;;;;;;;;20.50;18.75;;;;;26.80;56.81;100703.56;4976732;28;45254;-48
2023/08/19 03:50:14;;;;;;;;;21.75;16.75;;;;;26.78;56.63;100717.00;4977037;28;45173;-42
2023/08/19 03:52:39;;;;;;;;;17.00;17.00;;;;;26.80;56.81;100717.72;4976648;28;45998;-44
2023/08/19 03:55:05;;;;;;;;;17.00;16.25;;;;;26.79;56.52;100718.69;4976745;28;45250;-48
2023/08/19 03:57:30;;;;;;;;;17.00;16.00;;;;;26.79;56.77;100712.53;4959474;28;45309;-49
2023/08/19 03:59:56;;;;;;;;;21.75;15.50;;;;;26.78;56.33;100727.63;4977399;28;45199;-49
2023/08/19 04:02:21;;;;;;;;;21.25;17.00;;;;;26.78;56.27;100727.63;4976043;28;57565;-51
2023/08/19 04:05:01;;;;;;;;;22.00;17.00;;;;;26.78;56.16;100732.94;4976459;28;45345;-51
2023/08/19 04:07:27;;;;;;;;;18.00;14.75;;;;;26.77;56.43;100741.88;4977032;28;45354;-49
2023/08/19 04:09:56;;;;;;;;;18.25;18.25;;;;;26.77;56.01;100741.88;4976754;28;45547;-53
2023/08/19 04:12:25;;;;;;;;;19.50;16.75;;;;;26.77;56.38;100743.69;4976542;28;45271;-49
2023/08/19 04:14:51;;;;;;;;;19.25;17.00;;;;;26.78;56.11;100748.06;4976384;28;45341;-49
2023/08/19 04:17:17;;;;;;;;;19.00;18.00;;;;;26.77;56.22;100747.19;4976522;28;45397;-40
2023/08/19 04:19:43;;;;;;;;;19.00;16.75;;;;;26.77;56.25;100757.81;4976774;28;45354;-42
2023/08/19 04:22:12;;;;;;;;;16.75;14.50;;;;;26.76;56.14;100766.75;4976316;28;47010;-45
2023/08/19 04:24:37;;;;;;;;;17.00;14.00;;;;;26.77;56.09;100767.63;4976435;28;45321;-43
2023/08/19 04:27:03;;;;;;;;;16.50;15.25;;;;;26.76;56.06;100780.06;4976731;28;45334;-46
2023/08/19 04:29:29;;;;;;;;;16.75;16.25;;;;;26.76;55.87;100782.72;4976912;28;45482;-43
2023/08/19 04:31:54;;;;;;;;;16.25;14.00;;;;;26.75;55.96;100786.34;4976050;28;46090;-42
2023/08/19 04:34:20;;;;;;;;;16.25;13.75;;;;;26.75;55.98;100786.34;4976087;28;45330;-43
2023/08/19 04:36:46;;;;;;;;;20.25;17.25;;;;;26.76;55.80;100789.88;4976306;28;45278;-43
2023/08/19 04:39:11;;;;;;;;;17.75;16.00;;;;;26.75;55.44;100799.63;4976461;28;45329;-49
2023/08/19 04:41:37;;;;;;;;;18.75;16.00;;;;;26.76;55.70;100804.00;4976027;28;46052;-45
2023/08/19 04:44:03;;;;;;;;;15.25;13.50;;;;;26.75;55.62;100807.63;4976052;28;45399;-39
2023/08/19 04:46:29;;;;;;;;;18.00;15.75;;;;;26.75;55.30;100802.28;4976522;28;45305;-53
2023/08/19 04:48:54;;;;;;;;;16.50;15.50;;;;;26.74;55.75;100803.25;4976344;28;45479;-53
2023/08/19 04:51:19;;;;;;;;;17.25;15.00;;;;;26.74;55.79;100805.94;4976022;28;45924;-52
2023/08/19 04:53:44;;;;;;;;;16.25;13.25;;;;;26.76;55.61;100819.13;4976068;28;45398;-54
2023/08/19 04:56:10;;;;;;;;;18.25;16.00;;;;;26.75;55.45;100825.41;4975447;28;59002;-53
2023/08/19 04:58:35;;;;;;;;;17.25;14.50;;;;;26.74;55.69;100827.19;4976277;28;45298;-50
2023/08/19 05:01:00;;;;;;;;;12.75;12.00;;;;;26.75;55.33;100839.53;4979506;28;45464;-54
2023/08/19 05:03:26;;;;;;;;;16.25;14.75;;;;;26.74;55.77;100831.69;4979128;28;45805;-43
2023/08/19 05:05:51;;;;;;;;;15.75;15.25;;;;;26.72;55.60;100833.63;4979220;28;45233;-50
2023/08/19 05:08:16;;;;;;;;;12.75;11.75;;;;;26.74;55.47;100837.81;4979415;28;45406;-46
2023/08/19 05:10:42;;;;;;;;;16.25;13.00;;;;;26.74;55.02;100837.81;4979106;28;46036;-51
2023/08/19 05:13:07;;;;;;;;;19.25;14.00;;;;;26.74;55.37;100835.16;4977863;28;45319;-53
2023/08/19 05:15:32;;;;;;;;;14.25;13.75;;;;;26.73;55.38;100846.81;4979207;28;48447;-52
2023/08/19 05:17:58;;;;;;;;;17.50;13.00;;;;;26.73;55.41;100840.63;4979213;28;47530;-54
2023/08/19 05:20:23;;;;;;;;;16.75;13.25;;;;;26.72;55.36;100847.78;4978453;28;62010;-45
2023/08/19 05:22:48;;;;;;;;;17.00;13.50;;;;;26.72;55.23;100845.09;4978930;28;45302;-53
2023/08/19 05:25:14;;;;;;;;;15.00;14.75;;;;;26.74;55.14;100852.94;4978675;28;47084;-44
2023/08/19 05:27:39;;;;;;;;;16.00;12.00;;;;;26.72;55.23;100847.78;4979190;28;45558;-41
2023/08/19 05:30:07;;;;;;;;;16.25;15.25;;;;;26.73;55.23;100851.25;4978956;28;45896;-43
2023/08/19 05:32:33;;;;;;;;;15.50;14.25;;;;;26.72;55.20;100858.41;4979199;28;45504;-52
2023/08/19 05:34:58;;;;;;;;;15.00;13.50;;;;;26.73;54.84;100865.41;4978825;28;45441;-54
2023/08/19 05:37:23;;;;;;;;;15.25;13.50;;;;;26.73;55.10;100867.22;4978412;28;54140;-53
2023/08/19 05:39:49;;;;;;;;;15.50;14.25;;;;;26.72;55.08;100863.72;4978604;28;45263;-53
2023/08/19 05:42:14;;;;;;;;;13.00;12.25;;;;;26.72;54.89;100877.00;4961245;28;45957;-50
2023/08/19 05:44:40;;;;;;;;;14.25;12.25;;;;;26.72;55.04;100879.66;4978701;28;45294;-55
2023/08/19 05:47:05;;;;;;;;;16.00;12.75;;;;;26.72;54.79;100878.81;4978851;28;45347;-46
2023/08/19 05:49:30;;;;;;;;;12.25;12.25;;;;;26.73;55.04;100881.38;4978757;28;45319;-55
2023/08/19 05:51:56;;;;;;;;;16.75;13.50;;;;;26.73;55.16;100878.72;4977980;28;60274;-53
2023/08/19 05:54:21;;;;;;;;;16.00;15.00;;;;;26.72;55.07;100881.47;4978427;28;45373;-53
2023/08/19 05:56:46;;;;;;;;;14.25;13.25;;;;;26.71;55.02;100877.97;4978764;28;45162;-52
2023/08/19 05:59:12;;;;;;;;;13.25;11.75;;;;;26.72;54.90;100884.13;4977906;28;60775;-50
2023/08/19 06:01:37;;;;;;;;;13.00;13.00;;;;;26.72;54.62;100884.13;4978299;28;45284;-55
2023/08/19 06:04:03;;;;;;;;;15.00;13.00;;;;;26.70;54.76;100879.78;4978746;28;45292;-49
2023/08/19 06:06:28;;;;;;;;;13.00;10.00;;;;;26.72;54.65;100886.78;4978644;28;45400;-53
2023/08/19 06:08:53;;;;;;;;;12.25;11.25;;;;;26.73;54.81;100893.78;4978003;28;52942;-49
2023/08/19 06:11:19;;;;;;;;;12.75;11.50;;;;;26.72;54.79;100892.09;4976894;28;45356;-53
2023/08/19 06:13:44;;;;;;;;;16.00;13.75;;;;;26.70;54.74;100890.41;4978377;28;45400;-52
2023/08/19 06:16:09;;;;;;;;;13.00;11.75;;;;;26.72;55.04;100897.44;4977451;28;60325;-50
2023/08/19 06:18:35;;;;;;;;;15.25;13.00;;;;;26.72;54.76;100905.41;4978248;28;45986;-51
2023/08/19 06:21:02;;;;;;;;;14.25;11.50;;;;;26.70;54.98;100919.66;4978071;28;45295;-53
2023/08/19 06:23:27;;;;;;;;;14.75;12.00;;;;;26.73;54.77;100923.03;4978142;28;45375;-51
2023/08/19 06:25:53;;;;;;;;;13.00;12.00;;;;;26.72;54.96;100919.56;4960640;28;45303;-45
2023/08/19 06:28:21;;;;;;;;;12.75;11.75;;;;;26.70;54.48;100930.28;4977716;28;46507;-52
2023/08/19 06:30:47;;;;;;;;;14.75;13.25;;;;;26.72;54.70;100935.50;4977801;28;45200;-51
2023/08/19 06:33:15;;;;;;;;;11.75;10.25;;;;;26.71;54.53;100941.78;4978070;28;45295;-52
2023/08/19 06:35:41;;;;;;;;;12.25;11.50;;;;;26.73;54.41;100954.94;4978135;28;45772;-53
2023/08/19 06:38:14;;;;;;;;;15.75;13.00;;;;;26.70;54.74;100956.88;4978031;28;45379;-54
2023/08/19 06:41:14;;;;;;;;;13.00;11.25;;;;;26.72;54.64;100963.88;4976618;28;45467;-55
2023/08/19 06:43:40;;;;;;;;;12.25;12.25;;;;;26.70;54.48;100959.53;4973919;28;45606;-52
2023/08/19 06:46:07;;;;;;;;;12.50;11.00;;;;;26.71;54.63;100965.72;4978093;28;45580;-52
2023/08/19 06:48:34;;;;;;;;;12.50;10.75;;;;;26.72;54.53;100969.22;4977645;28;46148;-48
2023/08/19 06:51:01;;;;;;;;;12.25;12.00;;;;;26.72;54.47;100964.75;4977605;28;45752;-52
2023/08/19 06:53:26;;;;;;;;;11.75;11.00;;;;;26.71;54.48;100965.72;4977733;28;45432;-50
2023/08/19 06:56:24;;;;;;;;;12.50;12.50;;;;;26.72;54.52;100972.72;4977813;28;45354;-46
2023/08/19 06:59:00;;;;;;;;;11.50;8.50;;;;;26.70;54.30;100974.66;4975305;28;45231;-45
2023/08/19 07:01:29;;;;;;;;;10.25;9.75;;;;;26.72;54.13;100983.38;4976166;28;45272;-46
2023/08/19 07:03:56;;;;;;;;;10.50;10.50;;;;;26.72;54.31;100987.81;4977589;28;45457;-48
2023/08/19 07:06:22;;;;;;;;;10.00;10.00;;;;;26.72;54.19;100996.66;4977593;28;45453;-46
2023/08/19 07:08:48;;;;;;;;;9.25;8.75;;;;;26.70;53.76;100987.94;4977258;28;46662;-42
2023/08/19 07:11:15;;;;;;;;;7.25;7.00;;;;;26.70;53.92;100998.59;4977324;28;45662;-45
2023/08/19 07:13:41;;;;;;;;;10.50;8.00;;;;;26.70;53.64;100993.28;4977437;28;45231;-43
2023/08/19 07:16:10;;;;;;;;;9.00;5.75;;;;;26.70;52.95;100991.44;4977712;28;45247;-42
2023/08/19 07:18:39;;;;;;;;;7.75;7.00;;;;;26.67;53.07;100990.84;4977227;28;45351;-44
2023/08/19 07:21:08;;;;;;;;;9.00;8.00;;;;;26.63;53.13;100984.06;4977384;28;45393;-40
2023/08/19 07:23:34;;;;;;;;;5.25;4.00;;;;;26.63;52.79;100976.09;4977166;28;45446;-48
2023/08/19 07:26:00;;;;;;;;;8.75;7.25;;;;;26.64;52.94;100977.78;4977377;28;45599;-47
2023/08/19 07:28:29;;;;;;;;;8.25;8.25;;;;;26.63;52.53;100989.38;4977049;28;46122;-53
2023/08/19 07:30:55;;;;;;;;;7.50;6.00;;;;;26.62;52.67;100998.34;4977173;28;45722;-52
2023/08/19 07:33:20;;;;;;;;;5.00;5.00;;;;;26.63;52.49;101005.34;4976975;28;45396;-52
2023/08/19 07:35:45;;;;;;;;;8.00;6.75;;;;;26.62;52.56;101009.81;4977186;28;45370;-50
2023/08/19 07:38:11;;;;;;;;;9.00;6.00;;;;;26.61;52.20;101023.25;4977237;28;46344;-51
2023/08/19 07:40:36;;;;;;;;;6.00;6.00;;;;;26.59;52.56;101039.28;4976274;28;45323;-50
2023/08/19 07:43:02;;;;;;;;;4.50;4.50;;;;;26.60;52.54;101056.09;4977174;28;45294;-52
2023/08/19 07:45:27;;;;;;;;;5.00;5.00;;;;;26.57;52.00;101048.38;4977023;28;45215;-51
2023/08/19 07:47:53;;;;;;;;;5.75;5.25;;;;;26.57;52.02;101040.38;4976775;28;47314;-52
2023/08/19 07:50:18;;;;;;;;;5.00;4.00;;;;;26.53;51.87;101035.31;4976460;28;55153;-51
2023/08/19 07:52:43;;;;;;;;;4.00;4.00;;;;;26.52;51.86;101041.59;4976973;28;45290;-49
2023/08/19 07:55:10;;;;;;;;;5.00;4.00;;;;;26.51;51.81;101042.53;4977490;28;45550;-53
2023/08/19 07:57:35;;;;;;;;;6.00;5.00;;;;;26.48;51.98;101061.41;4976554;28;46103;-50
2023/08/19 08:00:00;;;;;;;;;5.00;4.00;;;;;26.49;51.76;101083.50;4976752;28;45330;-49
2023/08/19 08:02:26;;;;;;;;;3.50;3.50;;;;;26.49;51.77;101094.13;4976131;28;55425;-52
2023/08/19 08:04:51;;;;;;;;;5.25;3.25;;;;;26.49;51.89;101115.41;4976884;28;45568;-49
2023/08/19 08:07:16;;;;;;;;;3.00;3.00;;;;;26.47;52.00;101110.22;4976562;28;46173;-45
2023/08/19 08:09:43;;;;;;;;;5.50;4.25;;;;;26.47;51.75;101110.22;4976370;28;56640;-48
2023/08/19 08:12:09;;;;;;;;;4.25;4.00;;;;;26.46;52.01;101108.53;4977134;28;45770;-49
2023/08/19 08:14:34;;;;;;;;;4.00;3.00;;;;;26.45;51.86;101133.41;4976794;28;45157;-51
2023/08/19 08:16:59;;;;;;;;;4.00;3.25;;;;;26.43;51.81;101161.06;4976341;28;45326;-51
2023/08/19 08:19:28;;;;;;;;;3.00;2.25;;;;;26.43;51.80;101196.44;4975796;28;61296;-46
2023/08/19 08:21:54;;;;;;;;;3.00;3.00;;;;;26.42;52.02;101197.41;4976583;28;45404;-48
2023/08/19 08:24:20;;;;;;;;;4.50;4.50;;;;;26.40;52.11;101188.72;4976736;28;45523;-52
2023/08/19 08:26:46;;;;;;;;;4.00;4.00;;;;;26.41;52.39;101162.97;4976411;28;45358;-48
2023/08/19 08:29:11;;;;;;;;;5.00;5.00;;;;;26.39;52.27;101163.13;4976553;28;45320;-50
2023/08/19 08:31:37;;;;;;;;;4.50;4.50;;;;;26.39;52.43;101165.78;4976401;28;45369;-52
2023/08/19 08:34:02;;;;;;;;;4.00;4.00;;;;;26.39;52.68;101157.78;4977097;28;45445;-46
2023/08/19 08:36:27;;;;;;;;;4.00;4.00;;;;;26.39;52.19;101149.81;4979564;28;45900;-52
2023/08/19 08:38:53;;;;;;;;;5.50;4.25;;;;;26.38;52.73;101142.81;4979567;28;45377;-52
2023/08/19 08:41:18;;;;;;;;;3.50;3.50;;;;;26.37;52.72;101160.56;4979723;28;45408;-52
2023/08/19 08:43:47;;;;;;;;;5.50;3.25;;;;;26.37;52.53;101162.38;4980328;28;45565;-48
2023/08/19 08:46:14;;;;;;;;;5.50;4.00;;;;;26.35;52.96;101159.81;4979614;28;46289;-50
2023/08/19 08:48:41;;;;;;;;;7.50;3.00;;;;;26.36;52.77;101163.34;4979424;28;45700;-52
2023/08/19 08:51:07;;;;;;;;;4.75;4.75;;;;;26.35;53.18;101177.56;4979662;28;45325;-53
2023/08/19 08:53:33;;;;;;;;;5.00;4.00;;;;;26.34;53.00;101189.16;4979680;28;45350;-49
2023/08/19 08:56:00;;;;;;;;;6.50;5.00;;;;;26.34;53.58;101192.69;4979037;28;49845;-48
2023/08/19 08:58:25;;;;;;;;;5.75;5.75;;;;;26.35;53.48;101181.06;4978797;28;45369;-52
2023/08/19 09:00:52;;;;;;;;;6.75;4.75;;;;;26.32;53.41;101170.69;4978780;28;45764;-50
2023/08/19 09:03:25;;;;;;;;;5.00;4.00;;;;;26.31;53.62;101150.41;4979027;28;45341;-48
2023/08/19 09:05:55;;;;;;;;;3.25;3.25;;;;;26.32;53.76;101156.53;4985190;28;46887;-52
2023/08/19 09:08:33;;;;;;;;;2.00;2.00;;;;;26.32;53.77;101199.94;4978637;28;45815;-42
2023/08/19 09:11:02;;;;;;;;;4.75;4.75;;;;;26.33;53.79;101184.81;4983779;28;45346;-43
2023/08/19 09:13:30;;;;;;;;;2.00;2.00;;;;;26.32;54.01;101162.72;4979023;28;46536;-46
2023/08/19 09:15:56;;;;;;;;;3.25;3.25;;;;;26.31;53.91;101200.88;4976317;28;46071;-48
2023/08/19 09:18:21;;;;;;;;;3.00;3.00;;;;;26.32;54.19;101218.53;4978432;28;45492;-52
2023/08/19 09:20:47;;;;;;;;;4.50;4.50;;;;;26.32;54.21;101220.31;4978968;28;45498;-53
2023/08/19 09:23:12;;;;;;;;;5.25;5.00;;;;;26.32;54.23;101209.69;4978679;28;45442;-51
2023/08/19 09:25:39;;;;;;;;;5.50;5.00;;;;;26.33;54.31;101219.34;4977978;28;50188;-48
2023/08/19 09:28:05;;;;;;;;;4.00;4.00;;;;;26.33;54.30;101251.25;4968987;28;45280;-52
2023/08/19 09:30:34;;;;;;;;;6.00;4.25;;;;;26.31;54.07;101245.19;4978283;28;45232;-54
2023/08/19 09:33:00;;;;;;;;;5.50;4.00;;;;;26.31;54.29;101267.31;4978502;28;45413;-51
2023/08/19 09:35:35;;;;;;;;;3.00;3.00;;;;;26.31;54.65;101245.19;4978036;28;45428;-53
2023/08/19 09:38:00;;;;;;;;;4.00;4.00;;;;;26.30;54.84;101275.38;4976495;28;45543;-52
2023/08/19 09:40:26;;;;;;;;;5.00;4.75;;;;;26.30;54.80;101296.63;4977343;28;64464;-47
2023/08/19 09:42:51;;;;;;;;;4.75;4.00;;;;;26.30;54.90;101280.69;4978290;28;45577;-52
2023/08/19 09:45:18;;;;;;;;;6.50;4.50;;;;;26.28;55.18;101277.31;4977929;28;47395;-52
2023/08/19 09:47:49;;;;;;;;;7.00;4.00;;;;;26.28;55.39;101242.78;4977456;28;46090;-52
2023/08/19 09:50:19;;;;;;;;;4.00;4.00;;;;;26.26;54.94;101268.59;4979127;28;45864;-47
2023/08/19 09:53:03;;;;;;;;;3.50;2.75;;;;;26.26;55.47;101284.56;4979319;28;45396;-45
2023/08/19 09:55:30;;;;;;;;;6.75;6.75;;;;;26.24;55.57;101304.09;4978365;28;46246;-43
2023/08/19 09:57:56;;;;;;;;;5.00;5.00;;;;;26.24;55.90;101309.44;4978502;28;45220;-42
2023/08/19 10:00:24;;;;;;;;;5.25;5.25;;;;;26.24;55.78;101308.56;4978645;28;45254;-46
2023/08/19 10:02:49;;;;;;;;;6.75;5.00;;;;;26.22;56.10;101303.38;4979014;28;45333;-46
2023/08/19 10:05:16;;;;;;;;;5.25;5.25;;;;;26.21;56.01;101292.88;4978133;28;45482;-44
2023/08/19 10:07:47;;;;;;;;;6.00;5.00;;;;;26.21;55.78;101293.69;4978400;28;45672;-41
2023/08/19 10:10:13;;;;;;;;;6.75;5.25;;;;;26.18;56.16;101288.59;4978381;28;45288;-38
2023/08/19 10:12:40;;;;;;;;;5.00;5.00;;;;;26.19;56.48;101279.66;4978628;28;45394;-46
2023/08/19 10:15:08;;;;;;;;;6.50;5.00;;;;;26.17;56.45;101259.50;4978162;28;45349;-44
2023/08/19 10:17:39;;;;;;;;;5.75;3.25;;;;;26.15;56.41;101288.84;4978035;28;45391;-48
2023/08/19 10:20:11;;;;;;;;;6.00;5.00;;;;;26.12;56.11;101302.34;4978391;28;45381;-43
2023/08/19 10:22:41;;;;;;;;;3.75;3.75;;;;;26.13;56.20;101288.09;4978382;28;45508;-43
2023/08/19 10:25:09;;;;;;;;;5.25;5.25;;;;;26.11;56.53;101287.34;4978004;28;46167;-45
2023/08/19 10:27:35;;;;;;;;;3.75;3.75;;;;;26.13;56.37;101284.59;4978105;28;45391;-42
2023/08/19 10:30:23;;;;;;;;;5.00;5.00;;;;;26.12;56.63;101289.06;4978075;28;45232;-43
2023/08/19 10:32:48;;;;;;;;;8.50;5.50;;;;;26.11;56.54;101305.13;4978488;28;45573;-45
2023/08/19 10:35:14;;;;;;;;;9.75;7.50;;;;;26.12;56.68;101315.63;4992049;28;69866;-44
2023/08/19 10:37:41;;;;;;;;;4.50;4.50;;;;;26.12;57.01;101314.78;4978012;28;45274;-40
2023/08/19 10:40:08;;;;;;;;;7.00;5.75;;;;;26.12;56.94;101318.28;4978082;28;45313;-40
2023/08/19 10:42:34;;;;;;;;;4.25;4.25;;;;;26.10;56.86;101322.84;4978151;28;45325;-47
2023/08/19 10:45:00;;;;;;;;;6.25;6.00;;;;;26.09;57.02;101315.78;4992711;28;46389;-43
2023/08/19 10:47:25;;;;;;;;;7.25;5.75;;;;;26.08;57.03;101304.34;4977894;28;45372;-44
2023/08/19 10:50:00;;;;;;;;;6.50;5.50;;;;;26.06;57.17;101297.44;4978198;28;45454;-42
2023/08/19 10:52:25;;;;;;;;;6.00;6.00;;;;;26.09;56.65;101299.88;4977945;28;45345;-48
2023/08/19 10:54:51;;;;;;;;;5.75;5.00;;;;;26.07;56.85;101301.81;4977351;28;61341;-45
2023/08/19 10:57:25;;;;;;;;;5.75;5.00;;;;;26.07;56.81;101299.97;4976911;28;45307;-40
2023/08/19 10:59:59;;;;;;;;;6.25;3.25;;;;;26.08;56.43;101303.47;4978045;28;45356;-41
2023/08/19 11:02:29;;;;;;;;;5.00;5.00;;;;;26.06;55.99;101300.94;4977995;28;45364;-41
2023/08/19 11:04:57;;;;;;;;;6.25;4.00;;;;;26.08;55.81;101300.81;4977757;28;46434;-38
2023/08/19 11:07:24;;;;;;;;;4.00;3.50;;;;;26.08;55.83;101299.03;4977876;28;45793;-45
2023/08/19 11:09:50;;;;;;;;;4.00;4.00;;;;;26.07;56.26;101291.19;4977753;28;45357;-45
2023/08/19 11:12:20;;;;;;;;;5.00;5.00;;;;;26.11;55.64;101297.16;4977600;28;45586;-45